createdAt,value
2022-10-09T00:01:13.988Z,76.73
2022-10-09T00:03:43.614Z,76.31
2022-10-09T00:06:14.947Z,76.68
2022-10-09T00:08:43.867Z,76.78
2022-10-09T00:11:13.974Z,76.87
2022-10-09T00:13:43.360Z,76.97
2022-10-09T00:16:14.466Z,76.44
2022-10-09T00:18:43.213Z,76.46
2022-10-09T00:21:19.060Z,76.45
2022-10-09T00:23:46.813Z,76.58
2022-10-09T00:26:14.554Z,76.57
2022-10-09T00:28:43.714Z,76.38
2022-10-09T00:31:12.758Z,76.29
2022-10-09T00:33:40.796Z,76.58
2022-10-09T00:36:10.811Z,76.73
2022-10-09T00:38:38.583Z,76.82
2022-10-09T00:41:06.667Z,77.02
2022-10-09T00:43:41.710Z,76.70
2022-10-09T00:46:19.976Z,76.73
2022-10-09T00:49:01.300Z,76.72
2022-10-09T00:51:30.758Z,76.87
2022-10-09T00:53:59.714Z,76.60
2022-10-09T00:56:27.775Z,76.88
2022-10-09T00:58:58.639Z,77.16
2022-10-09T01:01:27.849Z,76.96
2022-10-09T01:03:55.511Z,77.13
2022-10-09T01:06:31.478Z,76.84
2022-10-09T01:09:04.972Z,76.96
2022-10-09T01:11:40.566Z,76.86
2022-10-09T01:14:19.403Z,76.78
2022-10-09T01:16:57.817Z,76.64
2022-10-09T01:19:41.990Z,76.98
2022-10-09T01:22:20.906Z,77.21
2022-10-09T01:24:56.157Z,77.43
2022-10-09T01:27:27.163Z,77.17
2022-10-09T01:29:57.712Z,77.15
2022-10-09T01:32:30.632Z,77.24
2022-10-09T01:34:59.703Z,77.43
2022-10-09T01:37:29.647Z,77.56
2022-10-09T01:39:58.348Z,76.98
2022-10-09T01:42:29.734Z,77.32
2022-10-09T01:44:57.428Z,77.02
2022-10-09T01:47:25.495Z,76.90
2022-10-09T01:49:59.206Z,77.28
2022-10-09T01:52:46.313Z,77.14
2022-10-09T01:55:26.680Z,77.58
2022-10-09T01:58:01.327Z,77.53
2022-10-09T02:00:34.098Z,77.25
2022-10-09T02:03:03.635Z,77.06
2022-10-09T02:05:32.919Z,77.58
2022-10-09T02:08:01.034Z,77.45
2022-10-09T02:10:29.047Z,77.32
2022-10-09T02:13:00.645Z,77.52
2022-10-09T02:15:33.805Z,77.85
2022-10-09T02:18:06.180Z,77.83
2022-10-09T02:20:37.014Z,77.72
2022-10-09T02:23:08.511Z,77.71
2022-10-09T02:25:36.812Z,77.88
2022-10-09T02:28:08.024Z,77.58
2022-10-09T02:30:45.362Z,77.72
2022-10-09T02:33:13.043Z,77.67
2022-10-09T02:35:41.102Z,77.72
2022-10-09T02:38:08.691Z,77.79
2022-10-09T02:40:36.286Z,77.69
2022-10-09T02:43:03.972Z,77.38
2022-10-09T02:45:32.998Z,77.77
2022-10-09T02:48:00.625Z,78.23
2022-10-09T02:50:30.856Z,78.02
2022-10-09T02:52:58.486Z,77.72
2022-10-09T02:55:26.167Z,77.75
2022-10-09T02:57:53.766Z,77.64
2022-10-09T03:00:21.816Z,77.97
2022-10-09T03:02:51.299Z,78.00
2022-10-09T03:05:19.328Z,78.28
2022-10-09T03:07:51.360Z,78.27
2022-10-09T03:10:19.867Z,78.08
2022-10-09T03:12:48.485Z,78.23
2022-10-09T03:15:16.438Z,78.26
2022-10-09T03:17:44.146Z,78.12
2022-10-09T03:20:13.175Z,78.52
2022-10-09T03:22:40.887Z,78.22
2022-10-09T03:25:09.116Z,78.49
2022-10-09T03:27:36.803Z,78.22
2022-10-09T03:30:05.181Z,78.81
2022-10-09T03:32:33.109Z,78.60
2022-10-09T03:35:00.796Z,78.67
2022-10-09T03:37:29.875Z,78.33
2022-10-09T03:39:57.515Z,78.58
2022-10-09T03:42:25.465Z,78.78
2022-10-09T03:44:53.118Z,78.73
2022-10-09T03:47:20.842Z,78.58
2022-10-09T03:49:48.625Z,79.02
2022-10-09T03:52:16.266Z,78.85
2022-10-09T03:54:45.403Z,79.08
2022-10-09T03:57:13.217Z,78.89
2022-10-09T03:59:40.897Z,78.95
2022-10-09T04:02:08.644Z,79.00
2022-10-09T04:04:36.324Z,78.72
2022-10-09T04:07:04.039Z,79.26
2022-10-09T04:09:31.704Z,79.21
2022-10-09T04:12:00.760Z,79.35
2022-10-09T04:14:28.397Z,79.30
2022-10-09T04:16:56.063Z,79.22
2022-10-09T04:19:23.703Z,79.24
2022-10-09T04:21:51.416Z,79.38
2022-10-09T04:24:19.250Z,79.04
2022-10-09T04:26:46.892Z,79.35
2022-10-09T04:29:16.190Z,79.06
2022-10-09T04:31:43.890Z,79.02
2022-10-09T04:34:11.603Z,79.02
2022-10-09T04:36:39.254Z,79.11
2022-10-09T04:39:07.113Z,79.00
2022-10-09T04:41:38.096Z,79.12
2022-10-09T04:44:06.896Z,79.40
2022-10-09T04:46:35.949Z,79.20
2022-10-09T04:49:03.691Z,79.41
2022-10-09T04:51:31.684Z,79.38
2022-10-09T04:54:00.740Z,78.96
2022-10-09T04:56:28.831Z,79.28
2022-10-09T04:58:56.509Z,79.38
2022-10-09T05:01:26.721Z,79.07
2022-10-09T05:03:56.723Z,78.78
2022-10-09T05:06:25.282Z,79.13
2022-10-09T05:08:54.110Z,79.44
2022-10-09T05:11:23.546Z,79.25
2022-10-09T05:13:53.700Z,79.09
2022-10-09T05:16:23.180Z,78.71
2022-10-09T05:18:53.895Z,79.48
2022-10-09T05:21:23.755Z,79.40
2022-10-09T05:23:52.057Z,79.44
2022-10-09T05:26:22.145Z,79.10
2022-10-09T05:28:50.248Z,79.34
2022-10-09T05:31:21.152Z,79.05
2022-10-09T05:33:49.437Z,79.54
2022-10-09T05:36:18.026Z,79.21
2022-10-09T05:38:47.247Z,79.34
2022-10-09T05:41:16.654Z,79.25
2022-10-09T05:43:46.176Z,79.28
2022-10-09T05:46:15.252Z,79.28
2022-10-09T05:48:45.486Z,79.51
2022-10-09T05:51:14.620Z,79.30
2022-10-09T05:53:43.535Z,79.46
2022-10-09T05:56:14.987Z,79.35
2022-10-09T05:58:43.450Z,79.60
2022-10-09T06:01:11.748Z,79.60
2022-10-09T06:03:39.692Z,79.43
2022-10-09T06:06:09.425Z,79.47
2022-10-09T06:08:38.191Z,79.38
2022-10-09T06:11:10.705Z,79.39
2022-10-09T06:13:39.825Z,79.55
2022-10-09T06:16:07.883Z,79.56
2022-10-09T06:18:35.634Z,79.56
2022-10-09T06:21:03.644Z,79.90
2022-10-09T06:23:32.095Z,79.77
2022-10-09T06:26:01.656Z,79.74
2022-10-09T06:28:29.560Z,79.80
2022-10-09T06:31:03.674Z,79.85
2022-10-09T06:33:33.121Z,80.35
2022-10-09T06:36:09.768Z,80.13
2022-10-09T06:38:38.677Z,80.01
2022-10-09T06:41:08.438Z,80.36
2022-10-09T06:43:36.435Z,80.64
2022-10-09T06:46:07.257Z,80.78
2022-10-09T06:48:36.640Z,80.66
2022-10-09T06:51:06.632Z,80.91
2022-10-09T06:53:35.512Z,81.03
2022-10-09T06:56:03.230Z,81.09
2022-10-09T06:58:34.119Z,81.31
2022-10-09T07:01:08.371Z,81.29
2022-10-09T07:03:36.626Z,80.86
2022-10-09T07:06:09.143Z,80.70
2022-10-09T07:08:37.093Z,81.03
2022-10-09T07:11:12.485Z,81.14
2022-10-09T07:13:43.121Z,81.24
2022-10-09T07:16:12.559Z,80.91
2022-10-09T07:18:40.786Z,81.03
2022-10-09T07:21:10.108Z,81.60
2022-10-09T07:23:38.132Z,80.85
2022-10-09T07:26:12.094Z,80.94
2022-10-09T07:28:42.491Z,81.17
2022-10-09T07:31:12.804Z,81.18
2022-10-09T07:33:41.754Z,80.90
2022-10-09T07:36:10.850Z,81.06
2022-10-09T07:38:39.006Z,81.13
2022-10-09T07:41:08.641Z,80.99
2022-10-09T07:43:37.108Z,80.82
2022-10-09T07:46:07.012Z,80.86
2022-10-09T07:48:36.869Z,80.80
2022-10-09T07:51:09.605Z,80.63
2022-10-09T07:53:37.348Z,80.73
2022-10-09T07:56:05.838Z,80.35
2022-10-09T07:58:33.915Z,80.54
2022-10-09T08:01:06.003Z,79.74
2022-10-09T08:03:34.351Z,80.33
2022-10-09T08:06:03.616Z,79.88
2022-10-09T08:08:31.593Z,79.56
2022-10-09T08:10:59.318Z,79.83
2022-10-09T08:13:27.052Z,80.20
2022-10-09T08:15:54.787Z,79.27
2022-10-09T08:18:22.476Z,78.97
2022-10-09T08:20:58.582Z,78.60
2022-10-09T08:23:28.022Z,78.22
2022-10-09T08:25:56.134Z,78.07
2022-10-09T08:28:24.085Z,78.40
2022-10-09T08:30:52.011Z,78.41
2022-10-09T08:33:22.040Z,78.29
2022-10-09T08:35:50.096Z,77.97
2022-10-09T08:38:37.661Z,77.29
2022-10-09T08:41:10.421Z,77.04
2022-10-09T08:43:41.962Z,75.92
2022-10-09T08:46:20.979Z,76.43
2022-10-09T08:48:51.318Z,75.65
2022-10-09T08:51:24.344Z,75.96
2022-10-09T08:54:31.724Z,75.25
2022-10-09T08:57:06.131Z,75.09
2022-10-09T08:59:34.275Z,74.06
2022-10-09T09:02:16.730Z,74.23
2022-10-09T09:05:04.936Z,73.67
2022-10-09T09:07:45.946Z,73.65
2022-10-09T09:10:25.303Z,72.51
2022-10-09T09:13:03.101Z,72.04
2022-10-09T09:15:47.275Z,71.88
2022-10-09T09:18:46.056Z,71.40
2022-10-09T09:21:44.555Z,70.87
2022-10-09T09:24:50.057Z,70.59
2022-10-09T09:27:22.204Z,69.98
2022-10-09T09:29:57.476Z,69.87
2022-10-09T09:32:28.838Z,69.80
2022-10-09T09:35:06.470Z,69.72
2022-10-09T09:37:34.362Z,69.44
2022-10-09T09:40:35.387Z,68.99
2022-10-09T09:42:57.103Z,68.33
2022-10-09T09:45:27.822Z,67.69
2022-10-09T09:47:58.871Z,67.59
2022-10-09T09:50:48.551Z,67.00
2022-10-09T09:53:28.525Z,66.99
2022-10-09T09:55:57.392Z,66.64
2022-10-09T09:58:33.205Z,65.97
2022-10-09T10:01:04.327Z,65.93
2022-10-09T10:03:36.083Z,65.48
2022-10-09T10:06:04.339Z,64.88
2022-10-09T10:08:47.161Z,64.33
2022-10-09T10:11:19.270Z,64.29
2022-10-09T10:13:49.656Z,64.45
2022-10-09T10:16:24.949Z,64.05
2022-10-09T10:18:56.931Z,63.12
2022-10-09T10:21:25.437Z,62.23
2022-10-09T10:23:58.859Z,61.15
2022-10-09T10:26:37.238Z,61.41
2022-10-09T10:29:23.012Z,60.36
2022-10-09T10:32:00.793Z,60.44
2022-10-09T10:34:33.089Z,59.54
2022-10-09T10:37:11.057Z,59.14
2022-10-09T10:39:44.883Z,58.06
2022-10-09T10:42:20.596Z,58.08
2022-10-09T10:44:53.620Z,58.34
2022-10-09T10:47:28.410Z,57.94
2022-10-09T10:49:56.659Z,57.44
2022-10-09T10:52:42.046Z,56.92
2022-10-09T10:55:26.808Z,55.53
2022-10-09T10:58:13.702Z,55.98
2022-10-09T11:00:50.607Z,56.14
2022-10-09T11:03:35.198Z,55.50
2022-10-09T11:06:09.561Z,55.27
2022-10-09T11:08:52.780Z,55.12
2022-10-09T11:11:24.448Z,55.04
2022-10-09T11:14:00.685Z,55.51
2022-10-09T11:16:48.570Z,54.73
2022-10-09T11:19:49.496Z,54.30
2022-10-09T11:22:33.984Z,54.21
2022-10-09T11:25:13.947Z,53.94
2022-10-09T11:27:50.194Z,54.33
2022-10-09T11:30:19.855Z,54.51
2022-10-09T11:32:56.143Z,53.20
2022-10-09T11:35:26.548Z,54.07
2022-10-09T11:38:08.073Z,53.40
2022-10-09T11:40:40.637Z,53.55
2022-10-09T11:43:28.561Z,53.50
2022-10-09T11:46:03.021Z,53.17
2022-10-09T11:48:38.800Z,52.60
2022-10-09T11:51:20.292Z,51.93
2022-10-09T11:53:55.937Z,52.06
2022-10-09T11:56:25.988Z,52.10
2022-10-09T11:58:58.590Z,51.90
2022-10-09T12:01:32.873Z,51.98
2022-10-09T12:04:07.802Z,52.02
2022-10-09T12:06:50.611Z,50.60
2022-10-09T12:09:25.970Z,50.64
2022-10-09T12:11:59.595Z,50.53
2022-10-09T12:14:33.372Z,50.95
2022-10-09T12:17:01.641Z,51.14
2022-10-09T12:19:36.165Z,50.67
2022-10-09T12:22:08.872Z,50.46
2022-10-09T12:24:46.652Z,50.11
2022-10-09T12:27:21.658Z,50.32
2022-10-09T12:29:56.989Z,50.26
2022-10-09T12:32:29.308Z,50.10
2022-10-09T12:34:58.222Z,50.05
2022-10-09T12:37:36.589Z,49.85
2022-10-09T12:40:09.901Z,50.37
2022-10-09T12:42:37.894Z,50.14
2022-10-09T12:45:06.492Z,49.18
2022-10-09T12:47:36.339Z,49.50
2022-10-09T12:50:33.671Z,49.23
2022-10-09T12:53:07.022Z,49.58
2022-10-09T12:55:49.097Z,49.04
2022-10-09T12:58:31.220Z,49.38
2022-10-09T13:01:12.896Z,49.06
2022-10-09T13:03:48.375Z,48.70
2022-10-09T13:06:25.463Z,48.63
2022-10-09T13:09:05.323Z,48.08
2022-10-09T13:11:42.816Z,47.82
2022-10-09T13:14:30.965Z,46.78
2022-10-09T13:17:02.697Z,46.92
2022-10-09T13:19:38.333Z,47.17
2022-10-09T13:22:21.862Z,47.23
2022-10-09T13:24:54.288Z,47.46
2022-10-09T13:27:22.318Z,47.00
2022-10-09T13:29:50.633Z,47.49
2022-10-09T13:32:21.001Z,46.86
2022-10-09T13:34:50.167Z,45.90
2022-10-09T13:37:20.330Z,46.46
2022-10-09T13:39:48.744Z,46.30
2022-10-09T13:42:29.814Z,45.62
2022-10-09T13:45:00.314Z,45.92
2022-10-09T13:47:29.785Z,45.71
2022-10-09T13:50:01.988Z,45.41
2022-10-09T13:52:30.139Z,45.46
2022-10-09T13:54:58.110Z,45.90
2022-10-09T13:57:32.692Z,46.02
2022-10-09T14:00:00.544Z,46.28
2022-10-09T14:02:32.285Z,46.13
2022-10-09T14:05:02.822Z,46.15
2022-10-09T14:07:32.101Z,46.59
2022-10-09T14:10:03.647Z,46.52
2022-10-09T14:12:35.826Z,46.49
2022-10-09T14:15:05.001Z,46.48
2022-10-09T14:17:34.769Z,46.05
2022-10-09T14:20:06.101Z,45.97
2022-10-09T14:22:33.898Z,45.99
2022-10-09T14:25:01.672Z,46.11
2022-10-09T14:27:30.938Z,46.25
2022-10-09T14:30:02.611Z,45.71
2022-10-09T14:32:30.672Z,45.12
2022-10-09T14:34:58.598Z,45.56
2022-10-09T14:37:42.466Z,44.91
2022-10-09T14:40:11.496Z,45.34
2022-10-09T14:42:39.755Z,45.31
2022-10-09T14:45:10.564Z,45.94
2022-10-09T14:47:38.380Z,46.14
2022-10-09T14:50:06.919Z,46.27
2022-10-09T14:52:34.769Z,46.22
2022-10-09T14:55:02.745Z,45.99
2022-10-09T14:57:35.152Z,45.73
2022-10-09T15:00:05.005Z,45.70
2022-10-09T15:02:34.328Z,45.63
2022-10-09T15:05:02.226Z,44.76
2022-10-09T15:07:31.504Z,45.69
2022-10-09T15:09:59.472Z,45.46
2022-10-09T15:12:27.216Z,45.58
2022-10-09T15:14:55.010Z,46.11
2022-10-09T15:17:22.709Z,46.58
2022-10-09T15:19:55.370Z,46.04
2022-10-09T15:22:23.320Z,46.66
2022-10-09T15:24:58.227Z,47.05
2022-10-09T15:27:26.200Z,46.55
2022-10-09T15:29:54.236Z,47.11
2022-10-09T15:32:22.127Z,47.09
2022-10-09T15:34:51.294Z,47.13
2022-10-09T15:37:19.097Z,47.29
2022-10-09T15:39:46.929Z,47.21
2022-10-09T15:42:14.723Z,47.40
2022-10-09T15:44:49.680Z,47.49
2022-10-09T15:47:27.169Z,47.49
2022-10-09T15:50:14.823Z,47.62
2022-10-09T15:52:42.542Z,47.72
2022-10-09T15:55:10.469Z,46.98
2022-10-09T15:57:38.200Z,47.24
2022-10-09T16:00:07.235Z,46.43
2022-10-09T16:02:34.954Z,46.52
2022-10-09T16:05:02.770Z,46.08
2022-10-09T16:07:32.052Z,45.41
2022-10-09T16:09:59.956Z,45.87
2022-10-09T16:12:27.890Z,45.73
2022-10-09T16:14:55.737Z,45.96
2022-10-09T16:17:28.701Z,45.61
2022-10-09T16:19:59.082Z,45.63
2022-10-09T16:22:27.115Z,45.67
2022-10-09T16:24:56.299Z,45.66
2022-10-09T16:27:24.016Z,45.93
2022-10-09T16:29:52.195Z,45.89
2022-10-09T16:32:23.379Z,46.05
2022-10-09T16:34:57.122Z,46.37
2022-10-09T16:37:29.603Z,46.50
2022-10-09T16:40:03.047Z,46.65
2022-10-09T16:42:33.899Z,47.02
2022-10-09T16:45:04.545Z,47.23
2022-10-09T16:47:37.360Z,47.43
2022-10-09T16:50:49.318Z,47.88
2022-10-09T16:53:23.984Z,47.91
2022-10-09T16:55:54.973Z,48.57
2022-10-09T16:58:27.128Z,48.43
2022-10-09T17:01:03.942Z,48.58
2022-10-09T17:03:35.603Z,48.79
2022-10-09T17:06:08.287Z,48.72
2022-10-09T17:08:36.001Z,49.37
2022-10-09T17:11:07.271Z,49.19
2022-10-09T17:13:35.161Z,49.34
2022-10-09T17:16:13.280Z,49.75
2022-10-09T17:18:45.990Z,49.96
2022-10-09T17:21:14.470Z,50.27
2022-10-09T17:23:42.515Z,50.54
2022-10-09T17:26:18.516Z,50.55
2022-10-09T17:28:49.504Z,50.87
2022-10-09T17:31:19.475Z,51.03
2022-10-09T17:33:49.509Z,51.63
2022-10-09T17:36:20.331Z,51.76
2022-10-09T17:38:49.967Z,52.42
2022-10-09T17:41:21.339Z,52.36
2022-10-09T17:43:49.183Z,53.09
2022-10-09T17:46:22.975Z,53.52
2022-10-09T17:48:54.664Z,53.89
2022-10-09T17:51:26.967Z,54.21
2022-10-09T17:54:03.315Z,54.80
2022-10-09T17:56:34.858Z,55.08
2022-10-09T17:59:03.753Z,55.44
2022-10-09T18:01:32.400Z,55.47
2022-10-09T18:04:00.727Z,55.99
2022-10-09T18:06:34.055Z,56.51
2022-10-09T18:09:40.390Z,56.75
2022-10-09T18:12:09.683Z,57.08
2022-10-09T18:14:40.670Z,57.25
2022-10-09T18:17:16.114Z,57.60
2022-10-09T18:19:48.988Z,57.98
2022-10-09T18:22:16.861Z,57.78
2022-10-09T18:24:44.879Z,58.50
2022-10-09T18:27:14.003Z,58.65
2022-10-09T18:29:41.829Z,58.97
2022-10-09T18:32:14.006Z,58.86
2022-10-09T18:34:46.227Z,59.22
2022-10-09T18:37:15.223Z,59.39
2022-10-09T18:39:43.083Z,59.85
2022-10-09T18:42:10.765Z,59.65
2022-10-09T18:44:41.606Z,59.86
2022-10-09T18:47:14.443Z,59.69
2022-10-09T18:49:45.355Z,60.26
2022-10-09T18:52:14.164Z,60.43
2022-10-09T18:54:43.457Z,60.35
2022-10-09T18:57:11.455Z,60.70
2022-10-09T18:59:41.129Z,60.92
2022-10-09T19:02:09.934Z,60.97
2022-10-09T19:04:37.710Z,61.21
2022-10-09T19:07:10.272Z,60.98
2022-10-09T19:09:45.246Z,61.35
2022-10-09T19:12:12.998Z,61.08
2022-10-09T19:14:42.127Z,61.16
2022-10-09T19:17:10.033Z,60.93
2022-10-09T19:19:37.941Z,60.97
2022-10-09T19:22:06.047Z,60.82
2022-10-09T19:24:34.480Z,61.19
2022-10-09T19:27:03.455Z,61.17
2022-10-09T19:29:31.303Z,61.31
2022-10-09T19:32:00.422Z,61.35
2022-10-09T19:34:28.520Z,61.42
2022-10-09T19:36:56.290Z,61.54
2022-10-09T19:39:24.151Z,61.43
2022-10-09T19:41:52.168Z,61.91
2022-10-09T19:44:21.064Z,61.76
2022-10-09T19:46:48.925Z,61.92
2022-10-09T19:49:18.106Z,61.93
2022-10-09T19:51:46.415Z,62.05
2022-10-09T19:54:14.366Z,62.30
2022-10-09T19:56:42.097Z,62.18
2022-10-09T19:59:10.212Z,62.38
2022-10-09T20:01:40.327Z,62.27
2022-10-09T20:04:11.588Z,62.25
2022-10-09T20:06:42.412Z,62.43
2022-10-09T20:09:11.923Z,62.83
2022-10-09T20:11:39.736Z,62.87
2022-10-09T20:14:07.718Z,63.05
2022-10-09T20:16:35.575Z,63.56
2022-10-09T20:19:04.161Z,63.89
2022-10-09T20:21:33.537Z,63.81
2022-10-09T20:24:02.855Z,63.96
2022-10-09T20:26:33.188Z,64.16
2022-10-09T20:29:02.141Z,64.32
2022-10-09T20:31:30.456Z,64.27
2022-10-09T20:33:59.520Z,64.60
2022-10-09T20:36:29.944Z,65.14
2022-10-09T20:38:58.865Z,65.40
2022-10-09T20:41:29.149Z,65.38
2022-10-09T20:43:58.659Z,65.25
2022-10-09T20:46:28.035Z,65.53
2022-10-09T20:48:56.176Z,65.47
2022-10-09T20:51:24.359Z,65.59
2022-10-09T20:53:52.851Z,66.02
2022-10-09T20:56:21.683Z,66.02
2022-10-09T20:58:50.945Z,66.05
2022-10-09T21:01:19.101Z,66.42
2022-10-09T21:03:47.194Z,66.55
2022-10-09T21:06:18.476Z,66.95
2022-10-09T21:08:46.512Z,66.70
2022-10-09T21:11:17.151Z,67.26
2022-10-09T21:13:45.813Z,67.03
2022-10-09T21:16:17.387Z,67.54
2022-10-09T21:18:45.165Z,67.53
2022-10-09T21:21:15.350Z,67.58
2022-10-09T21:23:44.176Z,67.51
2022-10-09T21:26:14.076Z,68.34
2022-10-09T21:28:42.301Z,68.19
2022-10-09T21:31:11.161Z,68.15
2022-10-09T21:33:43.632Z,68.46
2022-10-09T21:36:12.144Z,68.17
2022-10-09T21:38:40.154Z,68.68
2022-10-09T21:41:07.934Z,68.08
2022-10-09T21:43:35.676Z,68.69
2022-10-09T21:46:03.522Z,68.54
2022-10-09T21:48:31.762Z,68.45
2022-10-09T21:51:01.022Z,68.71
2022-10-09T21:53:28.727Z,68.46
2022-10-09T21:55:56.470Z,68.71
2022-10-09T21:58:24.529Z,69.31
2022-10-09T22:00:57.015Z,68.87
2022-10-09T22:03:25.416Z,69.07
2022-10-09T22:05:53.155Z,69.48
2022-10-09T22:08:22.803Z,69.85
2022-10-09T22:10:50.645Z,69.79
2022-10-09T22:13:19.761Z,69.58
2022-10-09T22:15:50.909Z,69.45
2022-10-09T22:18:19.264Z,69.88
2022-10-09T22:20:50.700Z,70.17
2022-10-09T22:23:20.598Z,69.65
2022-10-09T22:25:58.794Z,69.73
2022-10-09T22:28:26.720Z,69.80
2022-10-09T22:31:06.174Z,69.55
2022-10-09T22:33:34.793Z,69.35
2022-10-09T22:36:07.918Z,69.53
2022-10-09T22:38:36.229Z,69.42
2022-10-09T22:41:08.670Z,69.23
2022-10-09T22:43:37.102Z,69.51
2022-10-09T22:46:12.214Z,69.46
2022-10-09T22:48:40.624Z,69.36
2022-10-09T22:51:10.739Z,69.50
2022-10-09T22:53:41.580Z,69.26
2022-10-09T22:56:14.210Z,69.37
2022-10-09T22:58:42.057Z,69.63
2022-10-09T23:01:13.040Z,68.89
2022-10-09T23:03:41.186Z,69.58
2022-10-09T23:06:11.138Z,70.06
2022-10-09T23:08:39.844Z,69.90
2022-10-09T23:11:07.836Z,69.66
2022-10-09T23:13:37.118Z,69.97
2022-10-09T23:16:06.709Z,69.38
2022-10-09T23:18:36.763Z,69.50
2022-10-09T23:21:05.388Z,69.91
2022-10-09T23:23:34.157Z,69.85
2022-10-09T23:26:05.193Z,69.78
2022-10-09T23:28:34.266Z,69.63
2022-10-09T23:31:04.771Z,69.80
2022-10-09T23:33:33.157Z,69.55
2022-10-09T23:36:03.143Z,69.92
2022-10-09T23:38:30.872Z,69.03
2022-10-09T23:40:58.848Z,69.52
2022-10-09T23:43:26.859Z,69.97
2022-10-09T23:45:56.700Z,68.99
2022-10-09T23:48:26.257Z,69.43
2022-10-09T23:50:55.236Z,69.13
2022-10-09T23:53:24.467Z,69.38
2022-10-09T23:55:52.758Z,69.74
2022-10-09T23:58:21.138Z,69.62
